CFG2406 EDDF-EDDP
Flight info
| Callsign | CFG2406 |
|---|---|
| Flight time | N/A |
| Altitude | 21000 |
| Route | SULUS7S/18 SULUS Z12 LASGA T953 VOCIM T954 GOXLI STAY1/0130 GOXLI GOXLI1R |
| Aircraft | A339/H-SDE1E2E3GHIJ1J4J7LM1OP2RVWXYZ/LB1D1 |
Departure
| Time | 2026-05-07 08:17 |
|---|---|
| Airport | Frankfurt Main Airport (EDDF) |
Arrival
| Time | N/A |
|---|---|
| Airport | Leipzig/Halle Airport (EDDP) |
| Time | Latitude | Longitude | Altitude | Speed | Heading |
|---|---|---|---|---|---|
| 2026-05-07 07:54 | 50.04097 | 8.55737 | 358 ft | 0 kts | 159° |
| 2026-05-07 08:10 | 50.04074 | 8.55751 | 358 ft | 10 kts | 159° |
| 2026-05-07 08:10 | 50.04014 | 8.55758 | 358 ft | 8 kts | 213° |
| 2026-05-07 08:10 | 50.03974 | 8.55634 | 357 ft | 17 kts | 251° |
| 2026-05-07 08:10 | 50.03923 | 8.55422 | 356 ft | 21 kts | 249° |
| 2026-05-07 08:11 | 50.03872 | 8.55205 | 355 ft | 22 kts | 249° |
| 2026-05-07 08:11 | 50.03816 | 8.54975 | 354 ft | 22 kts | 248° |
| 2026-05-07 08:11 | 50.03761 | 8.54747 | 352 ft | 22 kts | 250° |
| 2026-05-07 08:11 | 50.03706 | 8.54515 | 351 ft | 22 kts | 250° |
| 2026-05-07 08:12 | 50.03653 | 8.54284 | 350 ft | 22 kts | 252° |
| 2026-05-07 08:12 | 50.03601 | 8.54051 | 348 ft | 22 kts | 248° |
| 2026-05-07 08:12 | 50.03542 | 8.53827 | 347 ft | 22 kts | 249° |
| 2026-05-07 08:12 | 50.03488 | 8.53602 | 346 ft | 22 kts | 250° |
| 2026-05-07 08:13 | 50.03435 | 8.53381 | 345 ft | 21 kts | 250° |
| 2026-05-07 08:13 | 50.03383 | 8.53159 | 345 ft | 21 kts | 251° |
| 2026-05-07 08:13 | 50.03330 | 8.52937 | 344 ft | 20 kts | 251° |
| 2026-05-07 08:13 | 50.03284 | 8.52745 | 343 ft | 17 kts | 249° |
| 2026-05-07 08:14 | 50.03269 | 8.52634 | 343 ft | 7 kts | 268° |
| 2026-05-07 08:14 | 50.03253 | 8.52598 | 343 ft | 3 kts | 199° |
| 2026-05-07 08:14 | 50.03240 | 8.52595 | 343 ft | 0 kts | 180° |
| 2026-05-07 08:16 | 50.03027 | 8.52596 | 342 ft | 70 kts | 180° |
| 2026-05-07 08:17 | 50.02293 | 8.52599 | 341 ft | 138 kts | 181° |
| 2026-05-07 08:17 | 50.01193 | 8.52618 | 632 ft | 168 kts | 181° |
| 2026-05-07 08:17 | 50.00026 | 8.52633 | 1350 ft | 170 kts | 182° |
| 2026-05-07 08:17 | 49.98858 | 8.52641 | 2093 ft | 170 kts | 182° |
| 2026-05-07 08:18 | 49.97647 | 8.52650 | 2570 ft | 183 kts | 178° |
| 2026-05-07 08:18 | 49.96412 | 8.53366 | 2977 ft | 202 kts | 136° |
| 2026-05-07 08:18 | 49.95591 | 8.55208 | 3428 ft | 217 kts | 117° |
| 2026-05-07 08:18 | 49.94857 | 8.57380 | 3887 ft | 236 kts | 116° |
| 2026-05-07 08:19 | 49.94211 | 8.59731 | 4558 ft | 243 kts | 103° |
| 2026-05-07 08:19 | 49.93947 | 8.62314 | 5372 ft | 244 kts | 91° |
| 2026-05-07 08:19 | 49.93854 | 8.64905 | 6203 ft | 245 kts | 90° |
| 2026-05-07 08:19 | 49.93775 | 8.67538 | 7003 ft | 248 kts | 91° |
| 2026-05-07 08:20 | 49.93800 | 8.70226 | 7655 ft | 257 kts | 81° |
| 2026-05-07 08:20 | 49.94051 | 8.73067 | 8143 ft | 274 kts | 79° |
| 2026-05-07 08:20 | 49.94341 | 8.76033 | 8704 ft | 289 kts | 79° |
| 2026-05-07 08:20 | 49.94625 | 8.79137 | 9506 ft | 295 kts | 80° |
| 2026-05-07 08:21 | 49.94892 | 8.82292 | 10344 ft | 299 kts | 81° |
| 2026-05-07 08:21 | 49.95155 | 8.85551 | 10983 ft | 311 kts | 81° |
| 2026-05-07 08:21 | 49.95422 | 8.88987 | 11524 ft | 327 kts | 81° |
| 2026-05-07 08:21 | 49.95686 | 8.92458 | 12309 ft | 332 kts | 81° |
| 2026-05-07 08:22 | 49.95953 | 8.96048 | 13215 ft | 335 kts | 82° |
| 2026-05-07 08:22 | 49.96213 | 8.99585 | 14078 ft | 337 kts | 82° |
| 2026-05-07 08:22 | 49.96477 | 9.03207 | 14934 ft | 340 kts | 82° |
| 2026-05-07 08:22 | 49.96739 | 9.06837 | 15762 ft | 344 kts | 82° |
| 2026-05-07 08:23 | 49.97008 | 9.10562 | 16594 ft | 348 kts | 81° |
| 2026-05-07 08:23 | 49.97272 | 9.14259 | 17392 ft | 351 kts | 81° |
| 2026-05-07 08:23 | 49.97539 | 9.18013 | 18233 ft | 354 kts | 81° |
| 2026-05-07 08:23 | 49.97811 | 9.21844 | 19043 ft | 357 kts | 82° |
| 2026-05-07 08:24 | 49.98080 | 9.25673 | 19820 ft | 361 kts | 82° |
| 2026-05-07 08:24 | 49.98351 | 9.29520 | 20501 ft | 365 kts | 82° |
| 2026-05-07 08:24 | 49.98629 | 9.33505 | 20893 ft | 378 kts | 82° |
| 2026-05-07 08:24 | 49.98922 | 9.37680 | 20958 ft | 398 kts | 82° |
| 2026-05-07 08:25 | 49.99222 | 9.41999 | 20954 ft | 404 kts | 82° |
| 2026-05-07 08:25 | 49.99518 | 9.46302 | 20951 ft | 405 kts | 82° |
| 2026-05-07 08:25 | 49.99815 | 9.50635 | 20947 ft | 405 kts | 82° |
| 2026-05-07 08:25 | 50.00111 | 9.54994 | 20942 ft | 405 kts | 82° |
| 2026-05-07 08:26 | 50.00699 | 9.63674 | 20944 ft | 405 kts | 82° |
| 2026-05-07 08:26 | 50.00988 | 9.68002 | 20947 ft | 405 kts | 83° |
| 2026-05-07 08:26 | 50.01276 | 9.72324 | 20950 ft | 405 kts | 82° |
| 2026-05-07 08:27 | 50.01566 | 9.76688 | 20956 ft | 405 kts | 82° |
| 2026-05-07 08:27 | 50.01855 | 9.81062 | 20964 ft | 405 kts | 82° |
| 2026-05-07 08:27 | 50.02139 | 9.85385 | 20966 ft | 405 kts | 82° |
| 2026-05-07 08:27 | 50.02423 | 9.89771 | 20965 ft | 405 kts | 83° |
| 2026-05-07 08:28 | 50.02703 | 9.94084 | 20963 ft | 404 kts | 82° |
| 2026-05-07 08:28 | 50.02983 | 9.98436 | 20965 ft | 404 kts | 83° |
| 2026-05-07 08:28 | 50.03262 | 10.02769 | 20960 ft | 404 kts | 82° |
| 2026-05-07 08:28 | 50.03536 | 10.07066 | 20961 ft | 404 kts | 83° |
| 2026-05-07 08:29 | 50.03813 | 10.11434 | 20960 ft | 404 kts | 83° |
| 2026-05-07 08:29 | 50.04086 | 10.15778 | 20959 ft | 404 kts | 83° |
| 2026-05-07 08:29 | 50.04570 | 10.20062 | 20942 ft | 402 kts | 69° |
| 2026-05-07 08:29 | 50.05986 | 10.23737 | 20951 ft | 398 kts | 46° |
| 2026-05-07 08:30 | 50.07952 | 10.26810 | 20964 ft | 399 kts | 43° |
| 2026-05-07 08:30 | 50.09913 | 10.29826 | 20960 ft | 399 kts | 43° |
| 2026-05-07 08:30 | 50.11847 | 10.32877 | 20956 ft | 399 kts | 44° |
| 2026-05-07 08:30 | 50.13780 | 10.35997 | 20954 ft | 398 kts | 45° |
| 2026-05-07 08:31 | 50.15675 | 10.39115 | 20957 ft | 398 kts | 45° |
| 2026-05-07 08:31 | 50.17566 | 10.42256 | 20958 ft | 396 kts | 46° |
| 2026-05-07 08:31 | 50.19441 | 10.45390 | 20956 ft | 395 kts | 46° |
| 2026-05-07 08:31 | 50.21322 | 10.48551 | 20954 ft | 396 kts | 47° |
| 2026-05-07 08:32 | 50.23200 | 10.51706 | 20950 ft | 399 kts | 48° |
| 2026-05-07 08:32 | 50.25078 | 10.54881 | 20944 ft | 404 kts | 48° |
| 2026-05-07 08:32 | 50.26987 | 10.58127 | 20945 ft | 406 kts | 48° |
| 2026-05-07 08:32 | 50.28907 | 10.61395 | 20948 ft | 406 kts | 48° |
| 2026-05-07 08:33 | 50.30793 | 10.64607 | 20948 ft | 403 kts | 48° |
| 2026-05-07 08:33 | 50.32682 | 10.67824 | 20743 ft | 403 kts | 49° |
| 2026-05-07 08:33 | 50.34594 | 10.71032 | 20479 ft | 401 kts | 46° |
| 2026-05-07 08:33 | 50.36815 | 10.73559 | 20215 ft | 403 kts | 31° |
| 2026-05-07 08:34 | 50.39282 | 10.75653 | 19957 ft | 403 kts | 29° |
| 2026-05-07 08:34 | 50.41752 | 10.77680 | 19705 ft | 402 kts | 29° |
| 2026-05-07 08:34 | 50.44205 | 10.79734 | 19466 ft | 399 kts | 30° |
| 2026-05-07 08:34 | 50.46634 | 10.81817 | 19223 ft | 396 kts | 30° |
| 2026-05-07 08:35 | 50.49022 | 10.83904 | 19001 ft | 394 kts | 31° |
| 2026-05-07 08:35 | 50.51426 | 10.86029 | 18770 ft | 393 kts | 31° |
| 2026-05-07 08:35 | 50.53781 | 10.88127 | 18528 ft | 390 kts | 31° |
| 2026-05-07 08:35 | 50.56129 | 10.90229 | 18089 ft | 387 kts | 31° |
| 2026-05-07 08:36 | 50.58445 | 10.92309 | 17590 ft | 386 kts | 31° |
| 2026-05-07 08:36 | 50.60764 | 10.94398 | 17062 ft | 385 kts | 31° |
| 2026-05-07 08:36 | 50.63089 | 10.96495 | 16623 ft | 382 kts | 31° |
| 2026-05-07 08:36 | 50.65378 | 10.98563 | 16198 ft | 379 kts | 31° |
| 2026-05-07 08:37 | 50.67652 | 11.00619 | 15822 ft | 374 kts | 31° |
| 2026-05-07 08:37 | 50.69908 | 11.02662 | 15491 ft | 374 kts | 30° |
| 2026-05-07 08:37 | 50.72141 | 11.04691 | 15161 ft | 373 kts | 32° |
| 2026-05-07 08:37 | 50.74249 | 11.07004 | 14800 ft | 372 kts | 38° |
| 2026-05-07 08:38 | 50.76283 | 11.09509 | 14414 ft | 369 kts | 39° |
| 2026-05-07 08:38 | 50.78308 | 11.12033 | 14036 ft | 367 kts | 39° |
| 2026-05-07 08:38 | 50.80287 | 11.14483 | 13667 ft | 366 kts | 38° |
| 2026-05-07 08:38 | 50.82293 | 11.16945 | 13289 ft | 363 kts | 38° |
| 2026-05-07 08:39 | 50.84277 | 11.19367 | 12901 ft | 360 kts | 38° |
| 2026-05-07 08:39 | 50.86256 | 11.21777 | 12519 ft | 359 kts | 38° |
| 2026-05-07 08:39 | 50.88224 | 11.24170 | 12139 ft | 357 kts | 38° |
| 2026-05-07 08:39 | 50.90202 | 11.26575 | 11762 ft | 355 kts | 37° |
| 2026-05-07 08:40 | 50.92135 | 11.28923 | 11382 ft | 354 kts | 37° |
| 2026-05-07 08:40 | 50.94081 | 11.31291 | 11010 ft | 352 kts | 37° |
| 2026-05-07 08:40 | 50.96012 | 11.33644 | 10651 ft | 348 kts | 37° |
| 2026-05-07 08:40 | 50.97897 | 11.35937 | 10506 ft | 338 kts | 37° |
| 2026-05-07 08:41 | 50.99752 | 11.38198 | 10373 ft | 327 kts | 37° |
| 2026-05-07 08:41 | 51.01517 | 11.40348 | 10239 ft | 319 kts | 37° |
| 2026-05-07 08:41 | 51.03262 | 11.42483 | 10103 ft | 310 kts | 37° |
| 2026-05-07 08:41 | 51.04943 | 11.44538 | 9984 ft | 302 kts | 37° |
| 2026-05-07 08:42 | 51.06567 | 11.46530 | 9787 ft | 296 kts | 38° |
| 2026-05-07 08:42 | 51.08172 | 11.48498 | 9350 ft | 285 kts | 37° |
| 2026-05-07 08:42 | 51.09705 | 11.50382 | 8987 ft | 276 kts | 37° |
| 2026-05-07 08:42 | 51.11218 | 11.52240 | 8734 ft | 275 kts | 37° |
| 2026-05-07 08:43 | 51.12735 | 11.54104 | 8477 ft | 274 kts | 36° |
| 2026-05-07 08:43 | 51.14236 | 11.55950 | 8221 ft | 272 kts | 36° |
| 2026-05-07 08:43 | 51.15727 | 11.57781 | 7970 ft | 271 kts | 36° |
| 2026-05-07 08:43 | 51.17226 | 11.59627 | 7713 ft | 270 kts | 37° |
| 2026-05-07 08:44 | 51.18698 | 11.61443 | 7472 ft | 270 kts | 36° |
| 2026-05-07 08:44 | 51.20183 | 11.63275 | 7199 ft | 268 kts | 37° |
| 2026-05-07 08:44 | 51.21644 | 11.65079 | 6938 ft | 267 kts | 37° |
| 2026-05-07 08:44 | 51.23124 | 11.66910 | 6682 ft | 265 kts | 37° |
| 2026-05-07 08:45 | 51.24578 | 11.68703 | 6434 ft | 265 kts | 37° |
| 2026-05-07 08:45 | 51.26046 | 11.70519 | 6171 ft | 264 kts | 37° |
| 2026-05-07 08:45 | 51.27484 | 11.72301 | 5918 ft | 263 kts | 38° |
| 2026-05-07 08:45 | 51.28917 | 11.74077 | 5649 ft | 262 kts | 37° |
| 2026-05-07 08:46 | 51.30370 | 11.75879 | 5278 ft | 265 kts | 38° |
| 2026-05-07 08:46 | 51.31804 | 11.77742 | 4899 ft | 270 kts | 42° |
| 2026-05-07 08:46 | 51.33175 | 11.79837 | 4574 ft | 271 kts | 44° |
| 2026-05-07 08:46 | 51.34484 | 11.81921 | 4276 ft | 259 kts | 45° |
| 2026-05-07 08:47 | 51.35728 | 11.83923 | 4161 ft | 251 kts | 45° |
| 2026-05-07 08:47 | 51.36869 | 11.85990 | 4026 ft | 246 kts | 52° |
| 2026-05-07 08:47 | 51.37857 | 11.88182 | 3890 ft | 241 kts | 54° |
| 2026-05-07 08:47 | 51.38796 | 11.90352 | 3766 ft | 236 kts | 54° |
| 2026-05-07 08:48 | 51.39723 | 11.92524 | 3632 ft | 232 kts | 54° |
| 2026-05-07 08:48 | 51.40632 | 11.94657 | 3452 ft | 231 kts | 54° |
| 2026-05-07 08:48 | 51.41520 | 11.96762 | 3215 ft | 232 kts | 60° |
| 2026-05-07 08:48 | 51.42043 | 11.99210 | 3001 ft | 232 kts | 78° |
| 2026-05-07 08:49 | 51.42241 | 12.01726 | 2889 ft | 223 kts | 83° |
| 2026-05-07 08:49 | 51.42348 | 12.04143 | 2616 ft | 213 kts | 84° |
| 2026-05-07 08:49 | 51.42437 | 12.06470 | 2287 ft | 203 kts | 83° |
| 2026-05-07 08:49 | 51.42525 | 12.08610 | 2042 ft | 186 kts | 83° |
| 2026-05-07 08:50 | 51.42616 | 12.10616 | 1839 ft | 172 kts | 82° |
| 2026-05-07 08:50 | 51.42702 | 12.12468 | 1605 ft | 163 kts | 82° |
| 2026-05-07 08:50 | 51.42783 | 12.14228 | 1383 ft | 155 kts | 82° |
| 2026-05-07 08:50 | 51.42861 | 12.15917 | 1178 ft | 148 kts | 82° |
| 2026-05-07 08:51 | 51.42936 | 12.17544 | 978 ft | 143 kts | 82° |
| 2026-05-07 08:51 | 51.43008 | 12.19104 | 784 ft | 138 kts | 82° |
| 2026-05-07 08:51 | 51.43078 | 12.20626 | 585 ft | 134 kts | 82° |
| 2026-05-07 08:51 | 51.43143 | 12.22105 | 441 ft | 130 kts | 82° |
| 2026-05-07 08:52 | 51.43214 | 12.23440 | 440 ft | 112 kts | 85° |
| 2026-05-07 08:52 | 51.43274 | 12.24823 | 458 ft | 154 kts | 82° |
| 2026-05-07 08:52 | 51.43364 | 12.26662 | 1153 ft | 170 kts | 82° |
| 2026-05-07 08:52 | 51.43473 | 12.28525 | 2103 ft | 171 kts | 81° |
| 2026-05-07 08:53 | 51.43632 | 12.30467 | 2665 ft | 186 kts | 79° |
| 2026-05-07 08:53 | 51.43856 | 12.32565 | 3185 ft | 202 kts | 74° |
| 2026-05-07 08:53 | 51.44559 | 12.34575 | 3706 ft | 216 kts | 40° |
| 2026-05-07 08:53 | 51.45904 | 12.35600 | 4386 ft | 223 kts | 7° |
| 2026-05-07 08:54 | 51.47450 | 12.35298 | 4836 ft | 227 kts | 336° |
| 2026-05-07 08:54 | 51.48689 | 12.33746 | 4975 ft | 230 kts | 311° |
| 2026-05-07 08:54 | 51.49644 | 12.31688 | 4977 ft | 230 kts | 306° |
| 2026-05-07 08:54 | 51.49874 | 12.31140 | 4977 ft | 230 kts | 305° |
| 2026-05-07 08:56 | 51.50196 | 12.30357 | 4978 ft | 231 kts | 305° |
| 2026-05-07 08:56 | 51.50942 | 12.28078 | 4964 ft | 235 kts | 285° |
| 2026-05-07 08:56 | 51.51105 | 12.25465 | 4978 ft | 235 kts | 272° |
| 2026-05-07 08:56 | 51.51085 | 12.22850 | 4979 ft | 235 kts | 270° |
| 2026-05-07 08:57 | 51.51032 | 12.20250 | 4982 ft | 235 kts | 269° |
| 2026-05-07 08:57 | 51.50975 | 12.17611 | 4983 ft | 236 kts | 269° |
| 2026-05-07 08:57 | 51.50914 | 12.14973 | 4982 ft | 236 kts | 269° |
| 2026-05-07 08:57 | 51.50854 | 12.12366 | 4977 ft | 235 kts | 269° |
| 2026-05-07 08:58 | 51.50802 | 12.09753 | 4980 ft | 236 kts | 269° |
| 2026-05-07 08:58 | 51.50747 | 12.07101 | 4952 ft | 234 kts | 269° |
| 2026-05-07 08:58 | 51.50652 | 12.04497 | 4711 ft | 235 kts | 259° |
| 2026-05-07 08:58 | 51.49947 | 12.02153 | 4462 ft | 238 kts | 232° |
| 2026-05-07 08:59 | 51.48933 | 12.00089 | 4152 ft | 235 kts | 234° |
| 2026-05-07 08:59 | 51.47919 | 11.98097 | 3833 ft | 228 kts | 220° |
| 2026-05-07 08:59 | 51.46526 | 11.96997 | 3592 ft | 218 kts | 192° |
| 2026-05-07 08:59 | 51.45090 | 11.96873 | 3391 ft | 205 kts | 163° |
| 2026-05-07 09:00 | 51.43936 | 11.98013 | 3234 ft | 192 kts | 131° |
| 2026-05-07 09:00 | 51.43174 | 11.99708 | 3104 ft | 182 kts | 114° |
| 2026-05-07 09:00 | 51.42635 | 12.01495 | 2966 ft | 176 kts | 106° |
| 2026-05-07 09:00 | 51.42377 | 12.03390 | 2736 ft | 172 kts | 91° |
| 2026-05-07 09:01 | 51.42360 | 12.05288 | 2490 ft | 171 kts | 84° |
| 2026-05-07 09:01 | 51.42447 | 12.07160 | 2238 ft | 164 kts | 81° |
| 2026-05-07 09:01 | 51.42545 | 12.08937 | 2011 ft | 158 kts | 81° |
| 2026-05-07 09:01 | 51.42629 | 12.10637 | 1802 ft | 152 kts | 82° |
| 2026-05-07 09:02 | 51.42703 | 12.12307 | 1601 ft | 146 kts | 82° |
| 2026-05-07 09:02 | 51.42767 | 12.13753 | 1429 ft | 141 kts | 82° |
| 2026-05-07 09:02 | 51.42769 | 12.13793 | 1424 ft | 141 kts | 82° |
| 2026-05-07 09:02 | 51.42835 | 12.15333 | 1220 ft | 137 kts | 83° |
| 2026-05-07 09:03 | 51.42869 | 12.16852 | 1088 ft | 137 kts | 82° |
| 2026-05-07 09:03 | 51.42953 | 12.18383 | 921 ft | 138 kts | 80° |
| 2026-05-07 09:03 | 51.43037 | 12.19909 | 682 ft | 137 kts | 81° |
| 2026-05-07 09:03 | 51.43115 | 12.21398 | 484 ft | 133 kts | 82° |
| 2026-05-07 09:04 | 51.43181 | 12.22803 | 438 ft | 117 kts | 85° |
| 2026-05-07 09:04 | 51.43240 | 12.24072 | 445 ft | 123 kts | 84° |
| 2026-05-07 09:04 | 51.43316 | 12.25769 | 705 ft | 172 kts | 83° |
| 2026-05-07 09:04 | 51.43423 | 12.27632 | 1730 ft | 172 kts | 80° |
| 2026-05-07 09:05 | 51.43559 | 12.29471 | 2609 ft | 174 kts | 79° |
| 2026-05-07 09:05 | 51.43732 | 12.31483 | 3150 ft | 190 kts | 75° |
| 2026-05-07 09:05 | 51.44352 | 12.33369 | 3638 ft | 204 kts | 41° |
| 2026-05-07 09:05 | 51.45670 | 12.34380 | 4150 ft | 221 kts | 6° |
| 2026-05-07 09:06 | 51.47186 | 12.34010 | 4715 ft | 227 kts | 334° |
| 2026-05-07 09:06 | 51.48404 | 12.32421 | 4977 ft | 231 kts | 311° |
| 2026-05-07 09:06 | 51.49363 | 12.30350 | 4984 ft | 231 kts | 306° |
| 2026-05-07 09:06 | 51.50252 | 12.28201 | 4979 ft | 231 kts | 304° |
| 2026-05-07 09:07 | 51.50954 | 12.25851 | 4981 ft | 234 kts | 284° |
| 2026-05-07 09:07 | 51.51114 | 12.23289 | 4980 ft | 233 kts | 271° |
| 2026-05-07 09:07 | 51.51012 | 12.20686 | 4981 ft | 235 kts | 265° |
| 2026-05-07 09:07 | 51.50857 | 12.18049 | 4976 ft | 235 kts | 266° |
| 2026-05-07 09:08 | 51.50715 | 12.15451 | 4800 ft | 234 kts | 266° |
| 2026-05-07 09:08 | 51.50594 | 12.12867 | 4574 ft | 235 kts | 267° |
| 2026-05-07 09:08 | 51.50489 | 12.10252 | 4372 ft | 234 kts | 268° |
| 2026-05-07 09:08 | 51.50400 | 12.07657 | 4194 ft | 232 kts | 268° |
| 2026-05-07 09:09 | 51.50312 | 12.05098 | 4082 ft | 226 kts | 268° |
| 2026-05-07 09:09 | 51.50224 | 12.02622 | 3961 ft | 221 kts | 268° |
| 2026-05-07 09:09 | 51.50134 | 12.00202 | 3837 ft | 215 kts | 268° |
| 2026-05-07 09:09 | 51.49839 | 11.97897 | 3692 ft | 212 kts | 242° |
| 2026-05-07 09:10 | 51.48827 | 11.96261 | 3568 ft | 209 kts | 204° |
| 2026-05-07 09:10 | 51.47433 | 11.95650 | 3419 ft | 205 kts | 183° |
| 2026-05-07 09:10 | 51.46016 | 11.95757 | 3231 ft | 203 kts | 171° |
| 2026-05-07 09:10 | 51.44633 | 11.96071 | 3123 ft | 198 kts | 165° |
| 2026-05-07 09:11 | 51.43465 | 11.97080 | 2988 ft | 188 kts | 127° |
| 2026-05-07 09:11 | 51.42754 | 11.98789 | 2989 ft | 185 kts | 113° |
| 2026-05-07 09:11 | 51.42352 | 12.00725 | 2973 ft | 183 kts | 96° |
| 2026-05-07 09:11 | 51.42253 | 12.02741 | 2796 ft | 180 kts | 86° |
| 2026-05-07 09:12 | 51.42321 | 12.04695 | 2563 ft | 175 kts | 82° |
| 2026-05-07 09:12 | 51.42433 | 12.06608 | 2320 ft | 168 kts | 81° |
| 2026-05-07 09:12 | 51.42529 | 12.08419 | 2087 ft | 162 kts | 82° |
| 2026-05-07 09:12 | 51.42610 | 12.10176 | 1869 ft | 156 kts | 82° |
| 2026-05-07 09:13 | 51.42685 | 12.11883 | 1659 ft | 151 kts | 82° |
| 2026-05-07 09:13 | 51.42757 | 12.13531 | 1458 ft | 146 kts | 82° |
| 2026-05-07 09:13 | 51.42816 | 12.15142 | 1259 ft | 141 kts | 84° |
| 2026-05-07 09:13 | 51.42848 | 12.16671 | 1075 ft | 136 kts | 82° |
| 2026-05-07 09:14 | 51.42935 | 12.18167 | 892 ft | 136 kts | 79° |
| 2026-05-07 09:14 | 51.43019 | 12.19695 | 675 ft | 136 kts | 80° |
| 2026-05-07 09:14 | 51.43105 | 12.21177 | 516 ft | 133 kts | 82° |
| 2026-05-07 09:14 | 51.43170 | 12.22613 | 438 ft | 121 kts | 82° |
| 2026-05-07 09:15 | 51.43234 | 12.23859 | 443 ft | 107 kts | 86° |
| 2026-05-07 09:15 | 51.43302 | 12.25369 | 517 ft | 166 kts | 83° |
| 2026-05-07 09:15 | 51.43400 | 12.27191 | 1479 ft | 165 kts | 71° |
| 2026-05-07 09:15 | 51.43644 | 12.28967 | 2367 ft | 175 kts | 80° |
| 2026-05-07 09:16 | 51.43708 | 12.30982 | 3128 ft | 190 kts | 81° |
| 2026-05-07 09:16 | 51.44194 | 12.32935 | 3691 ft | 200 kts | 50° |
| 2026-05-07 09:16 | 51.45332 | 12.34236 | 4326 ft | 209 kts | 14° |
| 2026-05-07 09:16 | 51.46802 | 12.34248 | 4826 ft | 223 kts | 342° |
| 2026-05-07 09:17 | 51.48117 | 12.32934 | 4984 ft | 229 kts | 314° |
| 2026-05-07 09:17 | 51.49102 | 12.30932 | 4986 ft | 230 kts | 306° |
| 2026-05-07 09:17 | 51.49999 | 12.28773 | 4983 ft | 230 kts | 301° |
| 2026-05-07 09:17 | 51.50476 | 12.26351 | 4982 ft | 235 kts | 276° |
| 2026-05-07 09:18 | 51.50511 | 12.23696 | 4986 ft | 236 kts | 270° |
| 2026-05-07 09:18 | 51.50470 | 12.21084 | 4984 ft | 236 kts | 269° |
| 2026-05-07 09:18 | 51.50416 | 12.18438 | 4981 ft | 236 kts | 269° |
| 2026-05-07 09:18 | 51.50359 | 12.15808 | 4983 ft | 236 kts | 269° |
| 2026-05-07 09:19 | 51.50301 | 12.13193 | 4983 ft | 235 kts | 269° |
| 2026-05-07 09:19 | 51.50245 | 12.10582 | 4984 ft | 235 kts | 269° |
| 2026-05-07 09:19 | 51.50187 | 12.07943 | 4928 ft | 234 kts | 269° |
| 2026-05-07 09:19 | 51.50131 | 12.05341 | 4688 ft | 235 kts | 269° |
| 2026-05-07 09:20 | 51.49926 | 12.02769 | 4463 ft | 237 kts | 250° |
| 2026-05-07 09:20 | 51.48972 | 12.00652 | 4259 ft | 238 kts | 217° |
| 2026-05-07 09:20 | 51.47465 | 11.99622 | 4062 ft | 237 kts | 191° |
| 2026-05-07 09:20 | 51.45844 | 11.99238 | 3799 ft | 230 kts | 186° |
| 2026-05-07 09:21 | 51.44310 | 11.99347 | 3553 ft | 218 kts | 157° |
| 2026-05-07 09:21 | 51.43134 | 12.00680 | 3323 ft | 203 kts | 125° |
| 2026-05-07 09:21 | 51.42524 | 12.02611 | 3068 ft | 192 kts | 102° |
| 2026-05-07 09:21 | 51.42354 | 12.04700 | 2743 ft | 182 kts | 88° |
| 2026-05-07 09:22 | 51.42405 | 12.06636 | 2475 ft | 173 kts | 82° |
| 2026-05-07 09:22 | 51.42521 | 12.08570 | 2094 ft | 173 kts | 81° |
| 2026-05-07 09:22 | 51.42623 | 12.10448 | 1839 ft | 165 kts | 82° |
| 2026-05-07 09:22 | 51.42704 | 12.12229 | 1614 ft | 158 kts | 82° |
| 2026-05-07 09:23 | 51.42778 | 12.13946 | 1409 ft | 150 kts | 82° |
| 2026-05-07 09:23 | 51.42851 | 12.15600 | 1212 ft | 145 kts | 82° |
| 2026-05-07 09:23 | 51.42921 | 12.17155 | 1023 ft | 139 kts | 82° |
| 2026-05-07 09:23 | 51.42980 | 12.18690 | 814 ft | 136 kts | 84° |
| 2026-05-07 09:24 | 51.43030 | 12.20185 | 625 ft | 133 kts | 80° |
| 2026-05-07 09:24 | 51.43126 | 12.21672 | 445 ft | 132 kts | 82° |
| 2026-05-07 09:24 | 51.43193 | 12.23028 | 438 ft | 113 kts | 85° |
| 2026-05-07 09:24 | 51.43250 | 12.24288 | 447 ft | 133 kts | 84° |
| 2026-05-07 09:25 | 51.43341 | 12.26054 | 815 ft | 173 kts | 79° |
| 2026-05-07 09:25 | 51.43624 | 12.27959 | 1579 ft | 190 kts | 69° |
| 2026-05-07 09:25 | 51.44190 | 12.30135 | 1766 ft | 236 kts | 69° |
| 2026-05-07 09:25 | 51.44510 | 12.32832 | 2411 ft | 253 kts | 78° |
| 2026-05-07 09:26 | 51.45042 | 12.35316 | 3557 ft | 224 kts | 53° |
| 2026-05-07 09:26 | 51.46189 | 12.36900 | 4215 ft | 222 kts | 21° |
| 2026-05-07 09:26 | 51.47692 | 12.37225 | 4726 ft | 225 kts | 349° |
| 2026-05-07 09:26 | 51.49108 | 12.36126 | 5249 ft | 229 kts | 317° |
| 2026-05-07 09:27 | 51.50131 | 12.34167 | 5769 ft | 232 kts | 306° |
| 2026-05-07 09:27 | 51.51041 | 12.32050 | 6283 ft | 233 kts | 304° |
| 2026-05-07 09:27 | 51.52072 | 12.27283 | 6307 ft | 233 kts | 274° |
| 2026-05-07 09:28 | 51.52072 | 12.24666 | 5997 ft | 237 kts | 270° |
| 2026-05-07 09:28 | 51.52026 | 12.22027 | 5784 ft | 237 kts | 269° |
| 2026-05-07 09:28 | 51.51969 | 12.19380 | 5560 ft | 237 kts | 269° |
| 2026-05-07 09:28 | 51.51912 | 12.16768 | 5344 ft | 236 kts | 270° |
| 2026-05-07 09:29 | 51.51857 | 12.14121 | 5116 ft | 237 kts | 269° |
| 2026-05-07 09:29 | 51.51800 | 12.11477 | 4926 ft | 235 kts | 269° |
| 2026-05-07 09:29 | 51.51743 | 12.08881 | 4731 ft | 235 kts | 269° |
| 2026-05-07 09:29 | 51.51685 | 12.06263 | 4519 ft | 235 kts | 269° |
| 2026-05-07 09:30 | 51.51626 | 12.03624 | 4309 ft | 234 kts | 269° |
| 2026-05-07 09:30 | 51.51452 | 12.01043 | 4084 ft | 236 kts | 252° |
| 2026-05-07 09:30 | 51.50549 | 11.98868 | 3872 ft | 238 kts | 219° |
| 2026-05-07 09:30 | 51.49078 | 11.97766 | 3679 ft | 237 kts | 192° |
| 2026-05-07 09:31 | 51.47454 | 11.97356 | 3535 ft | 234 kts | 186° |
| 2026-05-07 09:31 | 51.45855 | 11.97085 | 3421 ft | 229 kts | 184° |
| 2026-05-07 09:31 | 51.44289 | 11.96959 | 3291 ft | 222 kts | 169° |
| 2026-05-07 09:31 | 51.42929 | 11.97939 | 3148 ft | 210 kts | 134° |
| 2026-05-07 09:32 | 51.42242 | 11.99843 | 3010 ft | 196 kts | 101° |
| 2026-05-07 09:32 | 51.42137 | 12.01951 | 2893 ft | 185 kts | 84° |
| 2026-05-07 09:32 | 51.42261 | 12.03970 | 2648 ft | 182 kts | 80° |
| 2026-05-07 09:32 | 51.42403 | 12.05946 | 2391 ft | 175 kts | 81° |
| 2026-05-07 09:33 | 51.42508 | 12.07853 | 2152 ft | 169 kts | 82° |
| 2026-05-07 09:33 | 51.42591 | 12.09706 | 1933 ft | 162 kts | 82° |
| 2026-05-07 09:33 | 51.42666 | 12.11474 | 1715 ft | 156 kts | 82° |
| 2026-05-07 09:33 | 51.42740 | 12.13169 | 1508 ft | 151 kts | 82° |
| 2026-05-07 09:34 | 51.42813 | 12.14807 | 1308 ft | 145 kts | 82° |
| 2026-05-07 09:34 | 51.42885 | 12.16386 | 1116 ft | 140 kts | 82° |
| 2026-05-07 09:34 | 51.42955 | 12.17921 | 928 ft | 135 kts | 82° |
| 2026-05-07 09:34 | 51.43024 | 12.19420 | 753 ft | 136 kts | 82° |
| 2026-05-07 09:35 | 51.43092 | 12.20919 | 543 ft | 134 kts | 82° |
| 2026-05-07 09:35 | 51.43156 | 12.22375 | 438 ft | 123 kts | 82° |
| 2026-05-07 09:35 | 51.43226 | 12.23659 | 441 ft | 107 kts | 85° |
| 2026-05-07 09:35 | 51.43290 | 12.25161 | 505 ft | 165 kts | 82° |
| 2026-05-07 09:36 | 51.43382 | 12.27082 | 1295 ft | 179 kts | 83° |
| 2026-05-07 09:36 | 51.43469 | 12.28981 | 2478 ft | 171 kts | 74° |
| 2026-05-07 09:36 | 51.44004 | 12.30456 | 3399 ft | 156 kts | 33° |
| 2026-05-07 09:36 | 51.45032 | 12.30895 | 3996 ft | 164 kts | 351° |
| 2026-05-07 09:37 | 51.46068 | 12.29975 | 4480 ft | 184 kts | 315° |
| 2026-05-07 09:37 | 51.46887 | 12.28293 | 4986 ft | 202 kts | 306° |
| 2026-05-07 09:37 | 51.47700 | 12.26341 | 5460 ft | 220 kts | 304° |
| 2026-05-07 09:37 | 51.48369 | 12.24072 | 5999 ft | 237 kts | 281° |
| 2026-05-07 09:38 | 51.48418 | 12.21435 | 6879 ft | 241 kts | 267° |
| 2026-05-07 09:38 | 51.48268 | 12.18782 | 7777 ft | 243 kts | 265° |
| 2026-05-07 09:38 | 51.48083 | 12.16119 | 8657 ft | 245 kts | 264° |
| 2026-05-07 09:38 | 51.47893 | 12.13427 | 9507 ft | 248 kts | 264° |
| 2026-05-07 09:39 | 51.47471 | 12.10732 | 10284 ft | 257 kts | 245° |
| 2026-05-07 09:39 | 51.46544 | 12.08205 | 10815 ft | 275 kts | 238° |
| 2026-05-07 09:39 | 51.45455 | 12.05577 | 11304 ft | 294 kts | 237° |
| 2026-05-07 09:39 | 51.44289 | 12.02729 | 11795 ft | 312 kts | 238° |
| 2026-05-07 09:40 | 51.43105 | 11.99756 | 12499 ft | 322 kts | 238° |
| 2026-05-07 09:40 | 51.41924 | 11.96727 | 13444 ft | 324 kts | 239° |
| 2026-05-07 09:40 | 51.40741 | 11.93657 | 14353 ft | 327 kts | 239° |
| 2026-05-07 09:40 | 51.39563 | 11.90577 | 15206 ft | 331 kts | 239° |
| 2026-05-07 09:41 | 51.38372 | 11.87449 | 15979 ft | 335 kts | 239° |
| 2026-05-07 09:41 | 51.37156 | 11.84256 | 16771 ft | 339 kts | 239° |
| 2026-05-07 09:41 | 51.35928 | 11.81027 | 17565 ft | 345 kts | 238° |
| 2026-05-07 09:41 | 51.34675 | 11.77740 | 18370 ft | 349 kts | 238° |
| 2026-05-07 09:42 | 51.33417 | 11.74442 | 19181 ft | 354 kts | 238° |
| 2026-05-07 09:42 | 51.32116 | 11.71030 | 19940 ft | 359 kts | 238° |
| 2026-05-07 09:42 | 51.30813 | 11.67620 | 20671 ft | 365 kts | 238° |
| 2026-05-07 09:42 | 51.29481 | 11.64139 | 21257 ft | 374 kts | 238° |
| 2026-05-07 09:43 | 51.28101 | 11.60544 | 21563 ft | 390 kts | 238° |
| 2026-05-07 09:43 | 51.26650 | 11.56764 | 21876 ft | 406 kts | 238° |
| 2026-05-07 09:43 | 51.25171 | 11.52912 | 21975 ft | 414 kts | 238° |
| 2026-05-07 09:43 | 51.23656 | 11.48973 | 21977 ft | 415 kts | 238° |
| 2026-05-07 09:44 | 51.22150 | 11.45058 | 21982 ft | 416 kts | 238° |
| 2026-05-07 09:44 | 51.20643 | 11.41153 | 21978 ft | 415 kts | 238° |
| 2026-05-07 09:44 | 51.19127 | 11.37227 | 21977 ft | 415 kts | 238° |
| 2026-05-07 09:44 | 51.17622 | 11.33338 | 21975 ft | 416 kts | 237° |
| 2026-05-07 09:45 | 51.16096 | 11.29394 | 21981 ft | 416 kts | 237° |
| 2026-05-07 09:45 | 51.14580 | 11.25489 | 21975 ft | 416 kts | 237° |
| 2026-05-07 09:45 | 51.13057 | 11.21574 | 21970 ft | 417 kts | 237° |
| 2026-05-07 09:45 | 51.11541 | 11.17678 | 21974 ft | 418 kts | 237° |
| 2026-05-07 09:46 | 51.10001 | 11.13725 | 21968 ft | 418 kts | 237° |
| 2026-05-07 09:46 | 51.08476 | 11.09815 | 21974 ft | 418 kts | 237° |
| 2026-05-07 09:46 | 51.06945 | 11.05897 | 21975 ft | 418 kts | 237° |
| 2026-05-07 09:46 | 51.05406 | 11.01966 | 21977 ft | 418 kts | 237° |
| 2026-05-07 09:47 | 51.03872 | 10.98050 | 21978 ft | 418 kts | 237° |
| 2026-05-07 09:47 | 51.02341 | 10.94157 | 21977 ft | 418 kts | 237° |
| 2026-05-07 09:47 | 51.00800 | 10.90239 | 21979 ft | 418 kts | 237° |
| 2026-05-07 09:47 | 50.99266 | 10.86345 | 21978 ft | 418 kts | 237° |
| 2026-05-07 09:48 | 50.97713 | 10.82409 | 21974 ft | 418 kts | 237° |
| 2026-05-07 09:48 | 50.96170 | 10.78502 | 21976 ft | 419 kts | 237° |
| 2026-05-07 09:48 | 50.94633 | 10.74617 | 21974 ft | 419 kts | 237° |
| 2026-05-07 09:48 | 50.93088 | 10.70718 | 21971 ft | 419 kts | 237° |
| 2026-05-07 09:49 | 50.91541 | 10.66822 | 21969 ft | 419 kts | 237° |
| 2026-05-07 09:49 | 50.90002 | 10.62947 | 21966 ft | 419 kts | 238° |
| 2026-05-07 09:49 | 50.88444 | 10.59035 | 21965 ft | 418 kts | 238° |
| 2026-05-07 09:49 | 50.86886 | 10.55125 | 21964 ft | 418 kts | 238° |
| 2026-05-07 09:50 | 50.85357 | 10.51297 | 21896 ft | 409 kts | 238° |
| 2026-05-07 09:50 | 50.83848 | 10.47519 | 21456 ft | 406 kts | 238° |
| 2026-05-07 09:50 | 50.82358 | 10.43799 | 20991 ft | 402 kts | 238° |
| 2026-05-07 09:50 | 50.80880 | 10.40113 | 20529 ft | 399 kts | 238° |
| 2026-05-07 09:51 | 50.79386 | 10.36395 | 20058 ft | 396 kts | 238° |
| 2026-05-07 09:51 | 50.77927 | 10.32765 | 19619 ft | 393 kts | 237° |
| 2026-05-07 09:51 | 50.76465 | 10.29132 | 19177 ft | 389 kts | 237° |
| 2026-05-07 09:51 | 50.75025 | 10.25566 | 18742 ft | 386 kts | 237° |
| 2026-05-07 09:52 | 50.73586 | 10.21997 | 18310 ft | 383 kts | 237° |
| 2026-05-07 09:52 | 50.72172 | 10.18502 | 17925 ft | 379 kts | 237° |
| 2026-05-07 09:52 | 50.70757 | 10.15006 | 17542 ft | 375 kts | 237° |
| 2026-05-07 09:52 | 50.69373 | 10.11594 | 17168 ft | 371 kts | 237° |